Time;durP1;ratioP1;P1;durP2;ratioP2;P2;SDS_P1;SDS_P2;PMS_P1;PMS_P2;Temp;Humidity;BMP_temperature;BMP_pressure;BME280_temperature;BME280_humidity;BME280_pressure;Samples;Min_cycle;Max_cycle;Signal;HPM_P1;HPM_P2
2021/12/25 00:00:59;;;;;;;309.88;170.98;;;;;;;;;;5014724;28;20049;-66
2021/12/25 00:03:25;;;;;;;298.42;166.30;;;;;;;;;;5012438;28;20108;-67
2021/12/25 00:05:54;;;;;;;295.85;161.20;;;;;;;;;;5029885;28;20033;-66
2021/12/25 00:08:25;;;;;;;282.52;155.00;;;;;;;;;;5033718;28;20372;-67
2021/12/25 00:10:52;;;;;;;277.33;151.15;;;;;;;;;;5033759;28;20033;-68
2021/12/25 00:13:19;;;;;;;310.08;171.45;;;;;;;;;;5034255;28;20132;-65
2021/12/25 00:15:46;;;;;;;259.42;137.13;;;;;;;;;;5030939;28;20099;-64
2021/12/25 00:18:12;;;;;;;257.73;141.05;;;;;;;;;;5033425;28;20021;-64
2021/12/25 00:20:38;;;;;;;231.15;125.78;;;;;;;;;;5033335;28;20033;-67
2021/12/25 00:23:05;;;;;;;209.02;114.38;;;;;;;;;;5034000;28;20472;-65
2021/12/25 00:25:36;;;;;;;214.35;117.45;;;;;;;;;;5032112;28;20049;-68
2021/12/25 00:28:21;;;;;;;196.52;102.55;;;;;;;;;;5033768;28;20492;-64
2021/12/25 00:36:10;;;;;;;135.73;67.90;;;;;;;;;;5032349;28;20404;-64
2021/12/25 00:38:37;;;;;;;177.02;94.53;;;;;;;;;;5033728;28;20021;-65
2021/12/25 00:41:04;;;;;;;146.63;74.32;;;;;;;;;;5020189;28;20041;-64
2021/12/25 00:43:30;;;;;;;131.13;62.85;;;;;;;;;;5014194;28;20515;-65
2021/12/25 00:45:56;;;;;;;128.80;63.50;;;;;;;;;;5031948;28;20140;-64
2021/12/25 00:48:21;;;;;;;115.45;58.72;;;;;;;;;;5033017;28;20358;-64
2021/12/25 00:50:48;;;;;;;94.13;49.22;;;;;;;;;;5033223;28;20045;-65
2021/12/25 00:53:14;;;;;;;104.32;48.80;;;;;;;;;;5032145;28;20132;-64
2021/12/25 00:55:40;;;;;;;95.97;48.78;;;;;;;;;;5017885;28;20623;-66
2021/12/25 00:58:05;;;;;;;82.15;43.78;;;;;;;;;;5013811;28;20124;-63
2021/12/25 01:00:31;;;;;;;88.47;42.83;;;;;;;;;;5013275;28;20033;-65
2021/12/25 01:02:57;;;;;;;78.22;40.80;;;;;;;;;;5011855;28;20112;-65
2021/12/25 01:05:23;;;;;;;78.95;39.88;;;;;;;;;;5010624;28;20048;-65
2021/12/25 01:07:49;;;;;;;75.13;39.97;;;;;;;;;;5012150;28;20120;-66
2021/12/25 01:10:21;;;;;;;70.80;37.88;;;;;;;;;;5012128;28;20403;-66
2021/12/25 01:13:01;;;;;;;67.00;37.03;;;;;;;;;;5007868;28;20112;-66
2021/12/25 01:31:49;;;;;;;53.33;28.92;;;;;;;;;;5006150;28;20038;-68
2021/12/25 01:37:37;;;;;;;57.37;31.97;;;;;;;;;;5012364;28;20041;-65
2021/12/25 01:49:22;;;;;;;57.65;32.38;;;;;;;;;;5004093;28;20509;-66
2021/12/25 01:51:48;;;;;;;59.22;33.50;;;;;;;;;;5013087;28;20037;-65
2021/12/25 01:54:14;;;;;;;69.40;37.50;;;;;;;;;;5031907;28;20025;-66
2021/12/25 01:56:40;;;;;;;75.03;39.80;;;;;;;;;;5032055;28;20029;-67
2021/12/25 01:59:06;;;;;;;76.40;36.65;;;;;;;;;;5031039;28;20106;-65
2021/12/25 02:01:32;;;;;;;70.20;35.88;;;;;;;;;;5023943;28;20037;-67
2021/12/25 02:03:58;;;;;;;69.28;35.60;;;;;;;;;;5010848;28;20025;-65
2021/12/25 02:06:24;;;;;;;71.18;36.80;;;;;;;;;;5010606;28;20041;-65
2021/12/25 02:08:50;;;;;;;71.90;36.28;;;;;;;;;;5011499;28;20895;-66
2021/12/25 02:11:15;;;;;;;76.60;39.78;;;;;;;;;;5016689;28;20044;-66
2021/12/25 02:13:43;;;;;;;85.32;44.05;;;;;;;;;;5012023;28;20041;-68
2021/12/25 02:16:18;;;;;;;78.30;39.03;;;;;;;;;;5011011;28;20084;-66
2021/12/25 02:21:36;;;;;;;70.53;37.40;;;;;;;;;;5013428;28;20041;-66
2021/12/25 02:24:07;;;;;;;70.88;36.83;;;;;;;;;;5046492;28;20064;-65
2021/12/25 02:26:34;;;;;;;71.88;39.47;;;;;;;;;;5030096;28;20045;-66
2021/12/25 02:28:59;;;;;;;77.22;38.72;;;;;;;;;;5029811;28;20045;-65
2021/12/25 02:31:26;;;;;;;72.75;39.88;;;;;;;;;;5030043;28;20040;-66
2021/12/25 02:33:52;;;;;;;79.85;40.95;;;;;;;;;;5030311;28;20040;-65
2021/12/25 02:36:19;;;;;;;79.60;40.33;;;;;;;;;;5029787;28;20038;-65
2021/12/25 02:38:46;;;;;;;89.35;44.60;;;;;;;;;;5029263;28;20037;-63
2021/12/25 02:41:13;;;;;;;80.60;42.25;;;;;;;;;;5029692;28;20061;-65
2021/12/25 02:43:42;;;;;;;87.50;44.30;;;;;;;;;;5030083;28;20025;-65
2021/12/25 02:46:09;;;;;;;81.70;42.95;;;;;;;;;;5029366;28;20095;-66
2021/12/25 02:48:38;;;;;;;78.47;42.35;;;;;;;;;;5031220;28;20416;-65
2021/12/25 02:51:06;;;;;;;84.00;42.80;;;;;;;;;;5030197;28;20030;-65
2021/12/25 02:53:32;;;;;;;97.38;49.38;;;;;;;;;;5029815;28;20076;-67
2021/12/25 02:55:58;;;;;;;108.55;55.05;;;;;;;;;;5031189;28;20116;-66
2021/12/25 02:58:27;;;;;;;119.10;60.75;;;;;;;;;;5030958;28;20025;-65
2021/12/25 03:01:00;;;;;;;121.95;61.47;;;;;;;;;;5036101;28;20447;-64
2021/12/25 03:03:26;;;;;;;;;;;;;;;;;;5014574;28;20508;-64
2021/12/25 03:05:53;;;;;;;131.77;63.08;;;;;;;;;;5015477;28;19975;-64
2021/12/25 03:08:20;;;;;;;122.07;60.97;;;;;;;;;;5013229;28;20037;-64
2021/12/25 03:10:54;;;;;;;127.35;63.83;;;;;;;;;;5013947;28;20524;-65
2021/12/25 03:15:55;;;;;;;120.38;61.60;;;;;;;;;;5014967;28;20164;-65
2021/12/25 03:18:27;;;;;;;134.90;67.90;;;;;;;;;;5013086;28;20105;-65
2021/12/25 03:20:58;;;;;;;131.85;66.25;;;;;;;;;;5052755;28;20029;-64
2021/12/25 03:23:26;;;;;;;125.05;63.38;;;;;;;;;;5050490;28;20049;-64
2021/12/25 03:25:53;;;;;;;137.07;69.35;;;;;;;;;;5054778;28;20471;-65
2021/12/25 03:28:23;;;;;;;136.27;66.13;;;;;;;;;;5037279;28;20177;-65
2021/12/25 03:30:49;;;;;;;124.32;61.72;;;;;;;;;;5041352;28;20086;-64
2021/12/25 03:33:17;;;;;;;115.15;56.90;;;;;;;;;;5014808;28;20037;-64
2021/12/25 03:35:44;;;;;;;99.40;50.70;;;;;;;;;;5016429;28;20508;-64
2021/12/25 03:38:14;;;;;;;113.90;57.55;;;;;;;;;;5027894;28;20523;-64
2021/12/25 03:40:40;;;;;;;118.22;55.70;;;;;;;;;;5013624;28;20067;-64
2021/12/25 03:43:07;;;;;;;135.35;65.05;;;;;;;;;;5013648;28;20034;-66
2021/12/25 03:45:34;;;;;;;123.43;62.10;;;;;;;;;;5014002;28;20376;-64
2021/12/25 03:59:05;;;;;;;114.53;56.05;;;;;;;;;;5012947;28;20041;-66
2021/12/25 04:04:11;;;;;;;93.88;45.97;;;;;;;;;;5013431;28;20045;-64
2021/12/25 04:06:50;;;;;;;102.50;48.25;;;;;;;;;;5014603;28;20500;-66
2021/12/25 04:11:49;;;;;;;115.18;54.05;;;;;;;;;;5013752;28;20049;-65
2021/12/25 04:14:16;;;;;;;113.28;55.65;;;;;;;;;;5014308;28;20507;-65
2021/12/25 04:16:42;;;;;;;120.63;60.15;;;;;;;;;;5012452;28;20386;-65
2021/12/25 04:19:08;;;;;;;114.47;58.65;;;;;;;;;;5012396;28;20033;-65
2021/12/25 04:21:35;;;;;;;111.45;57.53;;;;;;;;;;5011676;28;20548;-65
2021/12/25 04:24:02;;;;;;;106.70;51.03;;;;;;;;;;5012293;28;20022;-65
2021/12/25 04:26:28;;;;;;;117.53;56.35;;;;;;;;;;5029279;28;20038;-65
2021/12/25 04:48:17;;;;;;;95.85;48.00;;;;;;;;;;5012711;28;20037;-65
2021/12/25 05:04:49;;;;;;;92.90;46.63;;;;;;;;;;5025122;28;20042;-70
2021/12/25 05:07:35;;;;;;;95.00;48.25;;;;;;;;;;5032912;28;20046;-68
2021/12/25 05:10:02;;;;;;;102.82;49.60;;;;;;;;;;5028162;28;20037;-68
2021/12/25 05:12:31;;;;;;;102.95;50.08;;;;;;;;;;5014749;28;20030;-68
2021/12/25 05:14:59;;;;;;;106.07;52.17;;;;;;;;;;5021675;28;20044;-68
2021/12/25 05:17:25;;;;;;;96.25;46.45;;;;;;;;;;5013834;28;20536;-67
2021/12/25 05:19:51;;;;;;;89.10;47.80;;;;;;;;;;5026687;28;20029;-69
2021/12/25 05:22:18;;;;;;;95.75;48.53;;;;;;;;;;5033100;28;20025;-69
2021/12/25 05:24:44;;;;;;;91.50;45.97;;;;;;;;;;5031784;28;20657;-69
2021/12/25 05:27:13;;;;;;;88.60;48.38;;;;;;;;;;5031686;28;20037;-69
2021/12/25 05:29:45;;;;;;;104.07;50.17;;;;;;;;;;5032398;28;20030;-68
2021/12/25 05:32:13;;;;;;;98.20;49.13;;;;;;;;;;5031749;28;20045;-68
2021/12/25 05:34:59;;;;;;;111.05;54.53;;;;;;;;;;5014151;28;20121;-68
2021/12/25 05:37:36;;;;;;;108.80;52.17;;;;;;;;;;5047699;28;20444;-68
2021/12/25 05:40:34;;;;;;;103.15;51.88;;;;;;;;;;5036573;28;20132;-70
2021/12/25 05:43:01;;;;;;;101.40;51.38;;;;;;;;;;5048886;28;20483;-68
2021/12/25 05:45:27;;;;;;;115.88;54.88;;;;;;;;;;5043596;28;20029;-69
2021/12/25 05:48:09;;;;;;;121.82;58.53;;;;;;;;;;5032140;28;20026;-68
2021/12/25 05:50:45;;;;;;;113.22;57.10;;;;;;;;;;5031742;28;20036;-68
2021/12/25 05:53:34;;;;;;;104.75;54.35;;;;;;;;;;5031669;28;20045;-68
2021/12/25 05:56:18;;;;;;;98.57;46.63;;;;;;;;;;5032450;28;20495;-67
2021/12/25 05:58:55;;;;;;;87.80;43.50;;;;;;;;;;5016916;28;20044;-68
2021/12/25 06:01:32;;;;;;;90.53;45.38;;;;;;;;;;5031321;28;20041;-67
2021/12/25 06:03:58;;;;;;;90.93;43.28;;;;;;;;;;5031198;28;20033;-68
2021/12/25 06:06:24;;;;;;;88.57;45.15;;;;;;;;;;5030853;28;20033;-69
2021/12/25 06:08:50;;;;;;;91.72;44.30;;;;;;;;;;5032933;28;20488;-68
2021/12/25 06:11:17;;;;;;;73.95;39.25;;;;;;;;;;5032763;28;20135;-67
2021/12/25 06:13:55;;;;;;;66.43;36.10;;;;;;;;;;5031419;28;20456;-71
2021/12/25 06:16:22;;;;;;;80.93;41.88;;;;;;;;;;5031456;28;20129;-67
2021/12/25 06:19:04;;;;;;;76.88;41.33;;;;;;;;;;5030854;28;20116;-69
2021/12/25 06:21:36;;;;;;;66.43;38.95;;;;;;;;;;5031097;28;20048;-68
2021/12/25 06:24:34;;;;;;;70.60;38.50;;;;;;;;;;5031865;28;20460;-68
2021/12/25 06:27:29;;;;;;;59.03;31.95;;;;;;;;;;5013195;28;20041;-70
2021/12/25 06:30:21;;;;;;;58.75;30.98;;;;;;;;;;5031611;28;20053;-69
2021/12/25 06:32:58;;;;;;;59.08;35.35;;;;;;;;;;5030506;28;20130;-69
2021/12/25 06:35:57;;;;;;;54.13;31.70;;;;;;;;;;5031331;28;20045;-70
2021/12/25 06:38:41;;;;;;;57.42;30.73;;;;;;;;;;5016879;28;20037;-69
2021/12/25 06:41:21;;;;;;;52.55;29.17;;;;;;;;;;5032125;28;20496;-69
2021/12/25 06:43:48;;;;;;;48.60;29.13;;;;;;;;;;5030786;28;20037;-71
2021/12/25 06:46:25;;;;;;;56.38;30.75;;;;;;;;;;5030598;28;20088;-70
2021/12/25 06:48:51;;;;;;;48.78;28.17;;;;;;;;;;5031215;28;20034;-70
2021/12/25 06:51:40;;;;;;;51.03;28.48;;;;;;;;;;5029107;28;20151;-70
2021/12/25 06:54:17;;;;;;;56.95;32.00;;;;;;;;;;5022646;28;20122;-72
2021/12/25 06:56:50;;;;;;;65.72;35.63;;;;;;;;;;5031183;28;20120;-70
2021/12/25 06:59:23;;;;;;;112.87;55.60;;;;;;;;;;5030475;28;20039;-70
2021/12/25 07:01:51;;;;;;;91.75;47.10;;;;;;;;;;5030951;28;20399;-69
2021/12/25 07:04:37;;;;;;;62.20;33.90;;;;;;;;;;5030435;28;20103;-69
2021/12/25 07:07:28;;;;;;;50.55;31.90;;;;;;;;;;5031408;28;20440;-69
2021/12/25 07:10:13;;;;;;;57.83;33.08;;;;;;;;;;5030713;28;20137;-69
2021/12/25 07:12:52;;;;;;;65.15;33.17;;;;;;;;;;5030354;28;20046;-70
2021/12/25 07:15:47;;;;;;;57.60;33.17;;;;;;;;;;5031514;28;20033;-71
2021/12/25 07:18:35;;;;;;;60.72;34.28;;;;;;;;;;5030948;28;20038;-69
2021/12/25 07:21:12;;;;;;;65.82;38.08;;;;;;;;;;5030598;28;20048;-69
2021/12/25 07:24:08;;;;;;;64.68;36.70;;;;;;;;;;5029198;28;20045;-69
2021/12/25 07:26:41;;;;;;;68.28;37.03;;;;;;;;;;5030238;28;20034;-70
2021/12/25 07:29:20;;;;;;;68.95;37.92;;;;;;;;;;5028514;28;20076;-69
2021/12/25 07:31:46;;;;;;;64.47;36.90;;;;;;;;;;5022947;28;20488;-71
2021/12/25 07:34:12;;;;;;;63.60;37.63;;;;;;;;;;5012190;28;20042;-70
2021/12/25 07:36:38;;;;;;;63.60;34.30;;;;;;;;;;5011846;28;20459;-70
2021/12/25 07:39:03;;;;;;;67.78;36.50;;;;;;;;;;5012287;28;20102;-70
2021/12/25 07:41:29;;;;;;;74.35;41.80;;;;;;;;;;5012405;28;20052;-71
2021/12/25 07:43:55;;;;;;;68.13;40.40;;;;;;;;;;5013996;28;20029;-69
2021/12/25 07:46:30;;;;;;;73.43;42.28;;;;;;;;;;5015892;28;20072;-69
2021/12/25 07:48:58;;;;;;;85.88;45.50;;;;;;;;;;5015669;28;20061;-70
2021/12/25 07:51:24;;;;;;;64.47;38.08;;;;;;;;;;5015441;28;20030;-67
2021/12/25 07:53:51;;;;;;;61.13;35.47;;;;;;;;;;5015839;28;20026;-69
2021/12/25 07:56:16;;;;;;;58.70;33.70;;;;;;;;;;5015896;28;20420;-71
2021/12/25 07:58:42;;;;;;;72.18;39.95;;;;;;;;;;5015185;28;20065;-71
2021/12/25 08:01:09;;;;;;;72.18;42.45;;;;;;;;;;5015317;28;20388;-69
2021/12/25 08:03:36;;;;;;;71.60;43.20;;;;;;;;;;5023190;28;20088;-69
2021/12/25 08:06:03;;;;;;;83.72;43.00;;;;;;;;;;5034711;28;20109;-69
2021/12/25 08:08:29;;;;;;;82.68;42.50;;;;;;;;;;5035322;28;20468;-68
2021/12/25 08:10:56;;;;;;;91.43;47.97;;;;;;;;;;5035055;28;20037;-69
2021/12/25 08:13:23;;;;;;;85.25;47.55;;;;;;;;;;5030293;28;20388;-69
2021/12/25 08:15:48;;;;;;;88.68;48.80;;;;;;;;;;5014618;28;20022;-67
2021/12/25 08:18:15;;;;;;;100.53;52.67;;;;;;;;;;5014947;28;20057;-70
2021/12/25 08:20:59;;;;;;;104.88;57.65;;;;;;;;;;5014908;28;20527;-70
2021/12/25 08:23:44;;;;;;;111.35;61.70;;;;;;;;;;5015508;28;20125;-70
2021/12/25 08:26:28;;;;;;;103.85;60.55;;;;;;;;;;5015329;28;20045;-70
2021/12/25 08:29:14;;;;;;;109.25;60.92;;;;;;;;;;5019235;28;20060;-70
2021/12/25 08:32:05;;;;;;;100.43;57.05;;;;;;;;;;5018686;28;20499;-69
2021/12/25 08:35:03;;;;;;;108.10;61.25;;;;;;;;;;5018589;28;20052;-69
2021/12/25 08:37:34;;;;;;;110.63;63.65;;;;;;;;;;5026566;28;20030;-72
2021/12/25 08:40:01;;;;;;;111.53;65.57;;;;;;;;;;5013903;28;20374;-71
2021/12/25 08:42:27;;;;;;;109.10;62.38;;;;;;;;;;5014367;28;20511;-71
2021/12/25 08:47:19;;;;;;;91.15;56.53;;;;;;;;;;5014269;28;20032;-70
2021/12/25 08:49:45;;;;;;;91.15;53.40;;;;;;;;;;5013714;28;20054;-70
2021/12/25 08:52:15;;;;;;;93.53;53.00;;;;;;;;;;5014273;28;20026;-70
2021/12/25 08:54:43;;;;;;;89.53;52.55;;;;;;;;;;5013411;28;20026;-68
2021/12/25 08:57:10;;;;;;;99.35;52.40;;;;;;;;;;5014197;28;20022;-70
2021/12/25 08:59:38;;;;;;;92.00;54.13;;;;;;;;;;5014502;28;20033;-69
2021/12/25 09:02:08;;;;;;;101.68;57.30;;;;;;;;;;5014383;28;20575;-69
2021/12/25 09:04:36;;;;;;;114.25;68.05;;;;;;;;;;5013976;28;20038;-68
2021/12/25 09:07:03;;;;;;;123.13;70.43;;;;;;;;;;5014004;28;20522;-68
2021/12/25 09:09:28;;;;;;;125.93;77.10;;;;;;;;;;5014035;28;20077;-70
2021/12/25 09:11:55;;;;;;;122.10;76.75;;;;;;;;;;5014038;28;20119;-67
2021/12/25 09:14:21;;;;;;;125.43;76.53;;;;;;;;;;5014056;28;20038;-69
2021/12/25 09:16:47;;;;;;;134.52;80.93;;;;;;;;;;5013912;28;20119;-69
2021/12/25 09:19:14;;;;;;;142.45;86.20;;;;;;;;;;5012990;28;20034;-69
2021/12/25 09:21:39;;;;;;;145.18;89.28;;;;;;;;;;5021832;28;20028;-69
2021/12/25 09:24:06;;;;;;;140.82;86.22;;;;;;;;;;5031678;28;20046;-68
2021/12/25 09:26:32;;;;;;;135.73;84.40;;;;;;;;;;5031138;28;20030;-68
2021/12/25 09:28:58;;;;;;;155.38;95.30;;;;;;;;;;5032290;28;20041;-68
2021/12/25 09:31:24;;;;;;;158.48;97.30;;;;;;;;;;5032596;28;20114;-68
2021/12/25 09:33:52;;;;;;;150.73;92.45;;;;;;;;;;5033646;28;20040;-70
2021/12/25 09:36:19;;;;;;;152.30;97.30;;;;;;;;;;5031848;28;20022;-69
2021/12/25 09:38:45;;;;;;;169.40;102.20;;;;;;;;;;5030749;28;20387;-68
2021/12/25 09:41:11;;;;;;;143.20;89.35;;;;;;;;;;5030620;28;20037;-67
2021/12/25 09:43:39;;;;;;;132.18;86.32;;;;;;;;;;5015817;28;20087;-69
2021/12/25 09:46:05;;;;;;;133.30;81.25;;;;;;;;;;5013250;28;20034;-67
2021/12/25 09:48:31;;;;;;;137.05;81.18;;;;;;;;;;5015369;28;20033;-67
2021/12/25 09:50:57;;;;;;;138.38;83.80;;;;;;;;;;5025131;28;20025;-67
2021/12/25 09:53:23;;;;;;;126.13;78.70;;;;;;;;;;5031854;28;20396;-68
2021/12/25 09:55:49;;;;;;;118.82;71.90;;;;;;;;;;5032920;28;20021;-70
2021/12/25 09:58:15;;;;;;;114.85;66.60;;;;;;;;;;5032316;28;20412;-68
2021/12/25 10:00:43;;;;;;;114.00;64.28;;;;;;;;;;5032642;28;20030;-69
2021/12/25 10:03:09;;;;;;;94.00;54.58;;;;;;;;;;5032576;28;20041;-69
2021/12/25 10:05:38;;;;;;;91.47;51.88;;;;;;;;;;5019997;28;20029;-69
2021/12/25 10:08:13;;;;;;;91.05;52.50;;;;;;;;;;5029235;28;20036;-69
2021/12/25 10:10:42;;;;;;;92.75;55.03;;;;;;;;;;5022880;28;20046;-68
2021/12/25 10:13:21;;;;;;;89.10;53.63;;;;;;;;;;5032552;28;20017;-69
2021/12/25 10:15:48;;;;;;;84.45;49.65;;;;;;;;;;5032064;28;20033;-68
2021/12/25 10:18:14;;;;;;;82.05;47.83;;;;;;;;;;5031987;28;20388;-69
2021/12/25 10:20:40;;;;;;;83.97;47.78;;;;;;;;;;5032618;28;20081;-69
2021/12/25 10:23:13;;;;;;;78.28;43.42;;;;;;;;;;5031844;28;20108;-67
2021/12/25 10:25:53;;;;;;;91.65;49.60;;;;;;;;;;5031940;28;20453;-71
2021/12/25 10:28:28;;;;;;;57.47;37.58;;;;;;;;;;5031905;28;20087;-70
2021/12/25 10:30:58;;;;;;;53.10;35.17;;;;;;;;;;5032098;28;20554;-67
2021/12/25 10:33:23;;;;;;;59.05;37.83;;;;;;;;;;5032039;28;20087;-71
2021/12/25 10:35:50;;;;;;;56.40;36.33;;;;;;;;;;5030863;28;20257;-69
2021/12/25 10:38:17;;;;;;;67.65;40.78;;;;;;;;;;5032086;28;20079;-69
2021/12/25 10:40:43;;;;;;;86.43;47.88;;;;;;;;;;5031839;28;20061;-69
2021/12/25 10:43:20;;;;;;;75.30;42.90;;;;;;;;;;5031926;28;20033;-69
2021/12/25 10:46:02;;;;;;;57.38;37.08;;;;;;;;;;5031417;28;20038;-69
2021/12/25 10:48:30;;;;;;;56.15;35.33;;;;;;;;;;5031178;28;20038;-69
2021/12/25 10:50:57;;;;;;;49.88;31.63;;;;;;;;;;5031487;28;20033;-69
2021/12/25 10:53:42;;;;;;;53.78;32.45;;;;;;;;;;5031779;28;20037;-70
2021/12/25 10:56:19;;;;;;;52.95;32.55;;;;;;;;;;5030916;28;20447;-69
2021/12/25 10:58:45;;;;;;;49.25;30.63;;;;;;;;;;5031899;28;20048;-68
2021/12/25 11:01:13;;;;;;;54.20;34.63;;;;;;;;;;5031247;28;20026;-70
2021/12/25 11:03:42;;;;;;;63.88;37.83;;;;;;;;;;5031550;28;20026;-70
2021/12/25 11:06:18;;;;;;;61.53;35.70;;;;;;;;;;5031478;28;20033;-70
2021/12/25 11:08:47;;;;;;;51.95;33.50;;;;;;;;;;5022477;28;20030;-70
2021/12/25 11:11:16;;;;;;;61.40;37.97;;;;;;;;;;5031318;28;20040;-68
2021/12/25 11:13:53;;;;;;;57.53;34.45;;;;;;;;;;5031583;28;20423;-68
2021/12/25 11:16:31;;;;;;;48.60;30.15;;;;;;;;;;5018226;28;20417;-69
2021/12/25 11:19:06;;;;;;;51.58;30.88;;;;;;;;;;5025901;28;20243;-69
2021/12/25 11:21:34;;;;;;;59.42;35.83;;;;;;;;;;5033183;28;20033;-70
2021/12/25 11:24:20;;;;;;;68.72;42.42;;;;;;;;;;5035306;28;20029;-70
2021/12/25 11:26:49;;;;;;;72.05;43.58;;;;;;;;;;5035143;28;20034;-67
2021/12/25 11:29:18;;;;;;;83.40;49.33;;;;;;;;;;5035199;28;20046;-69
2021/12/25 11:31:44;;;;;;;83.53;49.15;;;;;;;;;;5034668;28;20113;-70
2021/12/25 11:34:11;;;;;;;83.53;50.78;;;;;;;;;;5028129;28;20029;-69
2021/12/25 11:36:45;;;;;;;86.32;53.45;;;;;;;;;;5016929;28;20504;-70
2021/12/25 11:39:12;;;;;;;91.60;55.00;;;;;;;;;;5013245;28;20443;-69
2021/12/25 11:41:39;;;;;;;99.82;61.45;;;;;;;;;;5020987;28;20076;-71
2021/12/25 11:44:35;;;;;;;103.43;60.33;;;;;;;;;;5025080;28;20045;-72
2021/12/25 11:47:02;;;;;;;101.15;55.95;;;;;;;;;;5033034;28;20484;-69
2021/12/25 11:49:28;;;;;;;55.83;36.42;;;;;;;;;;5033356;28;20025;-70
2021/12/25 11:51:55;;;;;;;76.38;47.05;;;;;;;;;;5035064;28;20037;-68
2021/12/25 11:55:16;;;;;;;74.88;43.10;;;;;;;;;;5028728;28;20999;-71
2021/12/25 11:59:49;;;;;;;70.70;43.42;;;;;;;;;;5015375;28;20358;-71
2021/12/25 12:02:38;;;;;;;74.15;43.30;;;;;;;;;;5015060;28;20477;-71
2021/12/25 12:05:19;;;;;;;70.28;40.58;;;;;;;;;;5012762;28;20038;-69
2021/12/25 12:08:06;;;;;;;69.38;42.72;;;;;;;;;;5033537;28;20399;-67
2021/12/25 12:10:55;;;;;;;73.30;45.63;;;;;;;;;;5034144;28;20522;-68
2021/12/25 12:13:44;;;;;;;68.90;41.72;;;;;;;;;;5023868;28;20045;-68
2021/12/25 12:16:44;;;;;;;66.35;41.00;;;;;;;;;;5034005;28;20044;-68
2021/12/25 12:19:29;;;;;;;60.08;38.30;;;;;;;;;;5032874;28;20049;-68
2021/12/25 12:21:57;;;;;;;60.75;38.40;;;;;;;;;;5034441;28;20033;-69
2021/12/25 12:24:45;;;;;;;65.68;37.70;;;;;;;;;;5034291;28;20022;-68
2021/12/25 12:27:11;;;;;;;56.28;34.30;;;;;;;;;;5034275;28;20045;-69
2021/12/25 12:29:37;;;;;;;48.33;31.67;;;;;;;;;;5025189;28;20088;-69
2021/12/25 12:32:04;;;;;;;41.33;27.52;;;;;;;;;;5019855;28;20041;-68
2021/12/25 12:34:30;;;;;;;44.10;28.52;;;;;;;;;;5014402;28;20029;-68
2021/12/25 12:37:14;;;;;;;45.38;29.95;;;;;;;;;;5027185;28;20030;-69
2021/12/25 12:39:40;;;;;;;;;;;;;;;;;;5014563;28;20038;-69
2021/12/25 12:42:08;;;;;;;46.10;29.83;;;;;;;;;;5014547;28;20449;-69
2021/12/25 12:44:36;;;;;;;48.03;31.15;;;;;;;;;;5013943;28;20546;-69
2021/12/25 12:47:17;;;;;;;52.00;33.92;;;;;;;;;;5014354;28;20108;-69
2021/12/25 12:49:46;;;;;;;54.65;34.45;;;;;;;;;;5014604;28;20404;-69
2021/12/25 12:52:27;;;;;;;53.08;34.90;;;;;;;;;;5014481;28;20022;-68
2021/12/25 12:54:56;;;;;;;51.47;33.60;;;;;;;;;;5013890;28;20041;-68
2021/12/25 12:57:22;;;;;;;58.58;36.78;;;;;;;;;;5013997;28;20033;-69
2021/12/25 12:59:52;;;;;;;63.67;39.10;;;;;;;;;;5015474;28;20037;-69
2021/12/25 13:02:21;;;;;;;59.95;36.97;;;;;;;;;;5016604;28;20026;-69
2021/12/25 13:04:50;;;;;;;61.92;37.47;;;;;;;;;;5015974;28;20021;-69
2021/12/25 13:07:20;;;;;;;51.55;32.15;;;;;;;;;;5015367;28;20042;-69
2021/12/25 13:09:55;;;;;;;54.58;34.13;;;;;;;;;;5015986;28;20052;-70
2021/12/25 13:12:46;;;;;;;61.88;35.60;;;;;;;;;;5015122;28;20044;-68
2021/12/25 13:15:19;;;;;;;50.00;32.60;;;;;;;;;;5014009;28;20059;-68
2021/12/25 13:17:52;;;;;;;50.70;33.50;;;;;;;;;;5014040;28;20108;-76
2021/12/25 13:20:31;;;;;;;54.90;33.40;;;;;;;;;;5014108;28;20575;-67
2021/12/25 13:22:59;;;;;;;60.22;33.08;;;;;;;;;;5021142;28;20274;-67
2021/12/25 13:25:25;;;;;;;58.03;35.50;;;;;;;;;;5031874;28;20030;-75
2021/12/25 13:27:56;;;;;;;49.97;34.03;;;;;;;;;;5031981;28;20515;-71
2021/12/25 13:30:23;;;;;;;83.25;43.30;;;;;;;;;;5030875;28;20052;-70
2021/12/25 13:32:49;;;;;;;56.65;34.17;;;;;;;;;;5013946;28;20026;-69
2021/12/25 13:35:21;;;;;;;44.78;26.13;;;;;;;;;;5013503;28;20117;-68
2021/12/25 13:37:55;;;;;;;34.00;21.25;;;;;;;;;;5013482;28;20100;-69
2021/12/25 13:40:21;;;;;;;30.83;20.45;;;;;;;;;;5013502;28;20088;-69
2021/12/25 13:42:48;;;;;;;24.40;16.95;;;;;;;;;;5013459;28;20457;-70
2021/12/25 13:45:14;;;;;;;24.70;16.48;;;;;;;;;;5013043;28;20045;-70
2021/12/25 13:47:39;;;;;;;26.98;17.48;;;;;;;;;;5012969;28;20022;-70
2021/12/25 13:50:08;;;;;;;25.17;18.23;;;;;;;;;;5012650;28;20111;-69
2021/12/25 13:52:50;;;;;;;31.10;19.17;;;;;;;;;;5013042;28;20018;-70
2021/12/25 13:55:18;;;;;;;47.88;30.17;;;;;;;;;;5020156;28;20029;-69
2021/12/25 13:57:56;;;;;;;37.53;23.38;;;;;;;;;;5033074;28;20072;-70
2021/12/25 14:00:25;;;;;;;36.80;25.17;;;;;;;;;;5032596;28;20041;-70
2021/12/25 14:02:55;;;;;;;58.35;33.78;;;;;;;;;;5032793;28;20396;-70
2021/12/25 14:05:23;;;;;;;117.57;50.38;;;;;;;;;;5032566;28;20429;-69
2021/12/25 14:07:50;;;;;;;93.07;41.60;;;;;;;;;;5032594;28;20488;-71
2021/12/25 14:10:19;;;;;;;79.97;40.80;;;;;;;;;;5032953;28;20377;-70
2021/12/25 14:12:50;;;;;;;67.57;36.08;;;;;;;;;;5031210;28;20422;-73
2021/12/25 14:15:20;;;;;;;43.78;27.55;;;;;;;;;;5032784;28;20030;-69
2021/12/25 14:17:47;;;;;;;33.58;19.35;;;;;;;;;;5032496;28;20056;-70
2021/12/25 14:20:19;;;;;;;32.65;20.85;;;;;;;;;;5032371;28;20380;-71
2021/12/25 14:22:48;;;;;;;29.08;18.55;;;;;;;;;;5032126;28;20481;-73
2021/12/25 14:25:20;;;;;;;30.52;18.75;;;;;;;;;;5032810;28;20025;-69
2021/12/25 14:28:16;;;;;;;25.10;16.70;;;;;;;;;;5032226;28;20041;-69
2021/12/25 14:31:03;;;;;;;25.00;15.50;;;;;;;;;;5033850;28;20071;-69
2021/12/25 14:33:30;;;;;;;24.80;15.65;;;;;;;;;;5032679;28;20041;-69
2021/12/25 14:35:56;;;;;;;24.67;15.75;;;;;;;;;;5032558;28;20029;-70
2021/12/25 14:38:22;;;;;;;25.55;15.82;;;;;;;;;;5032049;28;20041;-69
2021/12/25 14:40:50;;;;;;;24.38;15.50;;;;;;;;;;5032215;28;20476;-70
2021/12/25 14:43:19;;;;;;;23.63;14.98;;;;;;;;;;5032326;28;20038;-70
2021/12/25 14:45:50;;;;;;;23.70;15.13;;;;;;;;;;5032097;28;20117;-71
2021/12/25 14:48:31;;;;;;;21.50;14.93;;;;;;;;;;5032316;28;20071;-70
2021/12/25 14:51:09;;;;;;;23.23;16.08;;;;;;;;;;5032441;28;20034;-68
2021/12/25 14:53:51;;;;;;;26.23;15.07;;;;;;;;;;5031834;28;20064;-68
2021/12/25 14:56:29;;;;;;;25.75;16.15;;;;;;;;;;5031984;28;20057;-73
2021/12/25 14:59:08;;;;;;;29.75;15.23;;;;;;;;;;5031801;28;20042;-70
2021/12/25 15:01:42;;;;;;;31.88;18.60;;;;;;;;;;5031794;28;20030;-71
2021/12/25 15:04:20;;;;;;;36.15;21.60;;;;;;;;;;5031732;28;20044;-72
2021/12/25 15:06:50;;;;;;;33.65;20.70;;;;;;;;;;5031581;28;20175;-70
2021/12/25 15:09:36;;;;;;;33.33;21.60;;;;;;;;;;5031607;28;20040;-70
2021/12/25 15:12:12;;;;;;;38.45;20.60;;;;;;;;;;5031773;28;20119;-74
2021/12/25 15:14:44;;;;;;;29.08;18.67;;;;;;;;;;5031343;28;20033;-71
2021/12/25 15:17:16;;;;;;;28.38;18.73;;;;;;;;;;5031570;28;20033;-77
2021/12/25 15:19:48;;;;;;;30.20;20.00;;;;;;;;;;5031717;28;20512;-71
2021/12/25 15:22:15;;;;;;;33.22;20.95;;;;;;;;;;5033611;28;20375;-75
2021/12/25 15:24:51;;;;;;;41.25;23.30;;;;;;;;;;5051821;28;20106;-73
2021/12/25 15:27:24;;;;;;;37.30;22.83;;;;;;;;;;5051711;28;20479;-73
2021/12/25 15:29:52;;;;;;;;;;;;;;;;;;5051812;28;20459;-71
2021/12/25 15:32:17;;;;;;;36.75;21.95;;;;;;;;;;5036825;28;19913;-74
2021/12/25 15:34:55;;;;;;;36.38;22.92;;;;;;;;;;5024040;28;20040;-74
2021/12/25 15:37:24;;;;;;;31.05;20.80;;;;;;;;;;5017944;28;20061;-74
2021/12/25 15:39:52;;;;;;;35.97;24.63;;;;;;;;;;5019423;28;20021;-73
2021/12/25 15:42:18;;;;;;;36.35;23.20;;;;;;;;;;5022875;28;20488;-70
2021/12/25 15:44:45;;;;;;;39.50;23.95;;;;;;;;;;5031356;28;20069;-72
2021/12/25 15:47:10;;;;;;;41.92;27.63;;;;;;;;;;5031229;28;20064;-73
2021/12/25 15:49:36;;;;;;;45.45;25.85;;;;;;;;;;5031236;28;20018;-72
2021/12/25 15:52:03;;;;;;;52.90;32.45;;;;;;;;;;5024458;28;20033;-71
2021/12/25 15:54:29;;;;;;;60.88;37.42;;;;;;;;;;5029030;28;20025;-69
2021/12/25 15:56:58;;;;;;;62.92;38.95;;;;;;;;;;5020275;28;20033;-71
2021/12/25 15:59:26;;;;;;;58.60;34.70;;;;;;;;;;5029688;28;20021;-73
2021/12/25 16:01:52;;;;;;;65.68;34.28;;;;;;;;;;5023820;28;20121;-71
2021/12/25 16:04:18;;;;;;;55.65;35.47;;;;;;;;;;5028615;28;20032;-68
2021/12/25 16:06:44;;;;;;;65.55;37.78;;;;;;;;;;5030842;28;20033;-69
2021/12/25 16:09:11;;;;;;;63.17;36.80;;;;;;;;;;5024560;28;20048;-72
2021/12/25 16:11:37;;;;;;;66.28;39.58;;;;;;;;;;5030611;28;20057;-70